createdAt,value
2024-03-29T00:01:15.893Z,11.70
2024-03-29T00:05:14.897Z,9.20
2024-03-29T00:09:12.865Z,10.50
2024-03-29T00:13:09.875Z,13.20
2024-03-29T00:17:06.868Z,12.00
2024-03-29T00:21:03.869Z,14.50
2024-03-29T00:25:01.911Z,12.90
2024-03-29T00:28:58.932Z,15.40
2024-03-29T00:32:56.850Z,9.10
2024-03-29T00:36:53.836Z,12.70
2024-03-29T00:40:50.897Z,9.90
2024-03-29T00:44:47.868Z,6.80
2024-03-29T00:48:44.839Z,9.40
2024-03-29T00:52:41.807Z,9.10
2024-03-29T00:56:38.929Z,10.00
2024-03-29T01:00:36.903Z,10.30
2024-03-29T01:04:34.794Z,13.40
2024-03-29T01:08:32.825Z,8.70
2024-03-29T01:12:29.827Z,11.90
2024-03-29T01:16:26.825Z,9.80
2024-03-29T01:20:24.822Z,15.00
2024-03-29T01:24:21.791Z,8.80
2024-03-29T01:28:18.805Z,11.60
2024-03-29T01:32:15.776Z,10.00
2024-03-29T01:36:13.772Z,17.00
2024-03-29T01:40:11.771Z,9.50
2024-03-29T01:44:08.787Z,11.30
2024-03-29T01:48:05.751Z,12.90
2024-03-29T01:52:02.783Z,14.80
2024-03-29T01:56:00.778Z,15.20
2024-03-29T02:00:01.833Z,11.40
2024-03-29T02:03:58.739Z,13.50
2024-03-29T02:07:55.725Z,15.50
2024-03-29T02:11:52.722Z,18.90
2024-03-29T02:15:49.794Z,17.30
2024-03-29T02:19:47.743Z,14.20
2024-03-29T02:23:46.741Z,13.60
2024-03-29T02:27:43.734Z,12.10
2024-03-29T02:31:40.735Z,10.80
2024-03-29T02:35:38.733Z,8.50
2024-03-29T02:39:36.740Z,13.70
2024-03-29T02:43:34.739Z,7.90
2024-03-29T02:47:32.715Z,5.90
2024-03-29T02:51:30.791Z,5.80
2024-03-29T02:55:27.716Z,5.80
2024-03-29T02:59:25.661Z,5.90
2024-03-29T03:03:22.733Z,9.20
2024-03-29T03:07:46.669Z,7.90
2024-03-29T03:11:43.669Z,6.20
2024-03-29T03:15:40.662Z,6.90
2024-03-29T03:19:38.640Z,7.60
2024-03-29T03:23:36.800Z,5.70
2024-03-29T03:27:33.656Z,6.90
2024-03-29T03:31:31.636Z,8.70
2024-03-29T03:35:29.204Z,4.70
2024-03-29T03:39:27.648Z,8.60
2024-03-29T03:43:25.724Z,6.30
2024-03-29T03:47:23.633Z,5.50
2024-03-29T03:51:20.627Z,6.40
2024-03-29T03:55:17.610Z,4.20
2024-03-29T03:59:14.674Z,5.10
2024-03-29T04:03:12.594Z,5.20
2024-03-29T04:07:09.615Z,6.10
2024-03-29T04:11:06.670Z,3.90
2024-03-29T04:15:03.585Z,4.30
2024-03-29T04:19:01.638Z,5.30
2024-03-29T04:22:58.606Z,6.00
2024-03-29T04:26:55.596Z,6.90
2024-03-29T04:30:52.570Z,5.20
2024-03-29T04:34:50.579Z,5.70
2024-03-29T04:38:48.666Z,4.90
2024-03-29T04:42:45.534Z,7.90
2024-03-29T04:46:44.546Z,7.20
2024-03-29T04:50:42.563Z,7.00
2024-03-29T04:54:39.557Z,7.20
2024-03-29T04:58:41.555Z,8.40
2024-03-29T05:02:38.537Z,7.60
2024-03-29T05:06:35.548Z,9.80
2024-03-29T05:10:32.549Z,13.00
2024-03-29T05:14:31.556Z,9.60
2024-03-29T05:18:29.586Z,5.00
2024-03-29T05:22:26.489Z,6.20
2024-03-29T05:26:24.506Z,7.60
2024-03-29T05:30:21.513Z,3.90
2024-03-29T05:38:15.510Z,6.80
2024-03-29T05:42:13.549Z,4.40
2024-03-29T05:46:10.506Z,3.10
2024-03-29T05:50:08.551Z,4.60
2024-03-29T05:54:05.483Z,3.00
2024-03-29T05:58:02.529Z,5.10
2024-03-29T06:02:00.460Z,8.00
2024-03-29T06:05:57.459Z,4.40
2024-03-29T06:09:54.488Z,4.30
2024-03-29T06:14:09.466Z,5.70
2024-03-29T06:18:06.457Z,7.70
2024-03-29T06:22:03.441Z,4.50
2024-03-29T06:26:01.484Z,5.50
2024-03-29T06:29:58.427Z,5.10
2024-03-29T06:33:35.734Z,5.80
2024-03-29T06:36:59.159Z,6.30
2024-03-29T06:40:22.610Z,5.40
2024-03-29T06:43:46.441Z,5.40
2024-03-29T06:47:10.573Z,4.90
2024-03-29T06:50:34.071Z,3.30
2024-03-29T06:53:58.010Z,8.50
2024-03-29T06:57:26.119Z,5.40
2024-03-29T07:00:50.220Z,7.60
2024-03-29T07:04:13.780Z,5.70
2024-03-29T07:07:37.858Z,3.00
2024-03-29T07:11:04.916Z,5.50
2024-03-29T07:14:29.418Z,6.50
2024-03-29T07:17:53.566Z,6.50
2024-03-29T07:21:17.454Z,6.60
2024-03-29T07:24:41.098Z,4.40
2024-03-29T07:28:05.055Z,4.70
2024-03-29T07:31:28.586Z,6.90
2024-03-29T07:34:52.040Z,5.80
2024-03-29T07:38:16.394Z,6.30
2024-03-29T07:41:40.035Z,5.50
2024-03-29T07:45:04.080Z,6.90
2024-03-29T07:48:27.702Z,4.50
2024-03-29T07:51:51.349Z,5.50
2024-03-29T07:55:15.365Z,6.00
2024-03-29T07:58:38.873Z,3.50
2024-03-29T08:02:03.415Z,2.90
2024-03-29T08:05:26.996Z,5.70
2024-03-29T08:08:51.685Z,4.00
2024-03-29T08:12:15.176Z,4.30
2024-03-29T08:15:38.758Z,2.60
2024-03-29T08:19:02.241Z,3.00
2024-03-29T08:22:25.822Z,3.10
2024-03-29T08:25:49.899Z,3.70
2024-03-29T08:29:13.429Z,5.80
2024-03-29T08:32:36.922Z,3.50
2024-03-29T08:36:00.480Z,2.50
2024-03-29T08:39:23.993Z,2.80
2024-03-29T08:42:47.563Z,3.70
2024-03-29T08:46:11.085Z,4.20
2024-03-29T08:49:34.612Z,2.60
2024-03-29T08:52:58.290Z,3.30
2024-03-29T08:56:21.829Z,3.70
2024-03-29T08:59:46.347Z,4.90
2024-03-29T09:03:09.883Z,3.70
2024-03-29T09:06:33.516Z,2.80
2024-03-29T09:09:57.004Z,3.50
2024-03-29T09:13:20.488Z,4.20
2024-03-29T09:16:44.041Z,5.30
2024-03-29T09:20:08.820Z,5.80
2024-03-29T09:23:32.313Z,5.80
2024-03-29T09:26:55.847Z,4.10
2024-03-29T09:30:19.885Z,5.20
2024-03-29T09:33:43.301Z,6.10
2024-03-29T09:37:06.755Z,4.00
2024-03-29T09:40:30.377Z,3.20
2024-03-29T09:43:55.828Z,3.00
2024-03-29T09:47:20.488Z,3.30
2024-03-29T09:50:44.111Z,3.60
2024-03-29T09:54:12.852Z,2.50
2024-03-29T09:57:37.224Z,4.20
2024-03-29T10:01:00.732Z,3.10
2024-03-29T10:04:25.997Z,2.40
2024-03-29T10:07:50.041Z,2.80
2024-03-29T10:11:13.731Z,3.20
2024-03-29T10:14:50.249Z,2.90
2024-03-29T10:18:13.825Z,4.60
2024-03-29T10:21:37.731Z,3.30
2024-03-29T10:25:01.213Z,3.70
2024-03-29T10:28:25.722Z,3.60
2024-03-29T10:31:50.790Z,3.90
2024-03-29T10:35:14.266Z,3.60
2024-03-29T10:38:37.892Z,3.20
2024-03-29T10:42:02.121Z,2.60
2024-03-29T10:45:26.445Z,4.90
2024-03-29T10:48:51.115Z,2.60
2024-03-29T10:52:18.113Z,11.20
2024-03-29T10:55:42.363Z,5.60
2024-03-29T10:59:23.276Z,6.40
2024-03-29T11:03:05.380Z,5.60
2024-03-29T11:06:33.269Z,5.30
2024-03-29T11:10:02.366Z,4.10
2024-03-29T11:14:08.008Z,4.10
2024-03-29T11:17:32.858Z,6.80
2024-03-29T11:20:59.766Z,3.30
2024-03-29T11:24:25.353Z,3.40
2024-03-29T11:27:49.836Z,5.30
2024-03-29T11:31:15.715Z,3.70
2024-03-29T11:34:45.935Z,4.40
2024-03-29T11:38:09.728Z,3.50
2024-03-29T11:41:33.403Z,3.90
2024-03-29T11:44:56.984Z,2.50
2024-03-29T11:48:28.580Z,1.90
2024-03-29T11:51:52.171Z,4.80
2024-03-29T11:55:16.192Z,5.10
2024-03-29T11:58:40.093Z,3.50
2024-03-29T12:02:04.186Z,2.70
2024-03-29T12:05:27.754Z,4.40
2024-03-29T12:08:54.170Z,5.80
2024-03-29T12:12:18.681Z,4.90
2024-03-29T12:15:42.427Z,3.20
2024-03-29T12:19:05.916Z,3.20
2024-03-29T12:22:29.391Z,2.10
2024-03-29T12:25:58.568Z,4.60
2024-03-29T12:29:22.499Z,2.90
2024-03-29T12:32:46.237Z,4.50
2024-03-29T12:36:09.921Z,6.70
2024-03-29T12:39:34.693Z,20.70
2024-03-29T12:42:59.584Z,2.40
2024-03-29T12:46:23.156Z,4.80
2024-03-29T12:49:46.621Z,2.60
2024-03-29T12:53:12.641Z,2.80
2024-03-29T12:56:37.661Z,2.60
2024-03-29T13:00:02.036Z,2.60
2024-03-29T13:03:26.107Z,4.30
2024-03-29T13:06:50.192Z,2.40
2024-03-29T13:10:15.793Z,2.40
2024-03-29T13:13:39.466Z,1.20
2024-03-29T13:17:03.142Z,2.00
2024-03-29T13:20:26.606Z,4.00
2024-03-29T13:23:50.245Z,4.30
2024-03-29T13:27:14.413Z,2.40
2024-03-29T13:30:43.939Z,3.60
2024-03-29T13:34:13.262Z,1.30
2024-03-29T13:37:41.946Z,2.80
2024-03-29T13:41:06.524Z,1.90
2024-03-29T13:44:32.084Z,1.90
2024-03-29T13:47:56.512Z,1.80
2024-03-29T13:51:20.103Z,3.10
2024-03-29T13:54:47.774Z,2.10
2024-03-29T13:58:11.568Z,1.90
2024-03-29T14:01:35.280Z,2.40
2024-03-29T14:04:59.618Z,4.30
2024-03-29T14:08:23.102Z,1.70
2024-03-29T14:11:47.894Z,4.30
2024-03-29T14:15:11.353Z,1.20
2024-03-29T14:18:38.172Z,2.30
2024-03-29T14:22:05.392Z,1.10
2024-03-29T14:25:28.976Z,3.30
2024-03-29T14:28:52.557Z,1.60
2024-03-29T14:32:16.113Z,2.00
2024-03-29T14:35:39.950Z,4.30
2024-03-29T14:39:03.419Z,2.30
2024-03-29T14:42:27.044Z,1.70
2024-03-29T14:45:51.280Z,2.00
2024-03-29T14:49:14.989Z,2.20
2024-03-29T14:52:41.489Z,1.90
2024-03-29T14:56:13.506Z,1.50
2024-03-29T14:59:41.707Z,3.80
2024-03-29T15:03:05.415Z,1.60
2024-03-29T15:06:29.123Z,2.50
2024-03-29T15:09:52.981Z,3.00
2024-03-29T15:13:16.450Z,2.90
2024-03-29T15:16:39.950Z,3.30
2024-03-29T15:20:06.128Z,3.80
2024-03-29T15:23:30.471Z,1.60
2024-03-29T15:26:59.159Z,1.70
2024-03-29T15:30:22.655Z,3.40
2024-03-29T15:33:46.246Z,1.60
2024-03-29T15:37:09.736Z,1.80
2024-03-29T15:40:33.199Z,4.20
2024-03-29T15:43:58.845Z,4.50
2024-03-29T15:47:23.067Z,3.10
2024-03-29T15:50:48.085Z,2.10
2024-03-29T15:54:17.399Z,4.20
2024-03-29T15:57:42.221Z,3.50
2024-03-29T16:01:06.003Z,3.30
2024-03-29T16:04:29.634Z,5.10
2024-03-29T16:07:53.397Z,4.20
2024-03-29T16:11:17.236Z,2.80
2024-03-29T16:14:40.754Z,3.10
2024-03-29T16:18:04.456Z,3.20
2024-03-29T16:21:28.422Z,3.60
2024-03-29T16:24:51.915Z,3.60
2024-03-29T16:28:16.288Z,3.40
2024-03-29T16:31:39.884Z,4.80
2024-03-29T16:35:03.438Z,3.80
2024-03-29T16:38:27.010Z,4.60
2024-03-29T16:41:50.970Z,3.70
2024-03-29T16:45:14.550Z,5.40
2024-03-29T16:48:38.164Z,4.70
2024-03-29T16:52:01.676Z,7.80
2024-03-29T16:55:26.430Z,5.70
2024-03-29T16:58:50.086Z,4.30
2024-03-29T17:02:13.801Z,7.60
2024-03-29T17:05:37.490Z,6.10
2024-03-29T17:09:01.056Z,7.70
2024-03-29T17:12:26.143Z,10.10
2024-03-29T17:15:50.646Z,3.90
2024-03-29T17:19:14.423Z,7.30
2024-03-29T17:22:39.108Z,5.90
2024-03-29T17:26:02.567Z,3.90
2024-03-29T17:29:26.815Z,6.20
2024-03-29T17:32:50.623Z,5.60
2024-03-29T17:36:14.068Z,3.40
2024-03-29T17:39:37.618Z,6.90
2024-03-29T17:43:01.239Z,6.20
2024-03-29T17:46:24.887Z,9.20
2024-03-29T17:49:48.426Z,11.00
2024-03-29T17:53:12.138Z,12.40
2024-03-29T17:56:35.672Z,14.00
2024-03-29T18:00:00.494Z,15.10
2024-03-29T18:03:24.642Z,10.30
2024-03-29T18:06:48.281Z,13.20
2024-03-29T18:10:12.409Z,11.30
2024-03-29T18:13:37.424Z,10.50
2024-03-29T18:17:00.987Z,8.50
2024-03-29T18:20:24.583Z,10.10
2024-03-29T18:23:48.079Z,13.80
2024-03-29T18:27:11.574Z,14.00
2024-03-29T18:30:36.892Z,12.00
2024-03-29T18:34:00.511Z,13.10
2024-03-29T18:37:24.048Z,11.70
2024-03-29T18:40:48.515Z,18.50
2024-03-29T18:44:11.997Z,12.90
2024-03-29T18:47:35.580Z,17.60
2024-03-29T18:51:00.453Z,17.20
2024-03-29T18:54:24.209Z,15.30
2024-03-29T18:57:47.691Z,15.30
2024-03-29T19:01:11.111Z,14.90
2024-03-29T19:04:35.243Z,15.40
2024-03-29T19:07:59.069Z,16.70
2024-03-29T19:11:24.975Z,16.20
2024-03-29T19:14:49.210Z,18.10
2024-03-29T19:18:14.524Z,15.60
2024-03-29T19:21:39.708Z,18.20
2024-03-29T19:25:03.215Z,19.10
2024-03-29T19:28:28.140Z,29.50
2024-03-29T19:31:51.734Z,29.30
2024-03-29T19:35:15.368Z,25.30
2024-03-29T19:38:38.861Z,22.00
2024-03-29T19:42:02.658Z,21.30
2024-03-29T19:45:26.258Z,19.40
2024-03-29T19:48:50.356Z,19.50
2024-03-29T19:52:13.923Z,14.60
2024-03-29T19:55:37.381Z,14.90
2024-03-29T19:59:01.165Z,15.70
2024-03-29T20:02:24.826Z,13.10
2024-03-29T20:05:48.314Z,10.60
2024-03-29T20:09:11.876Z,11.40
2024-03-29T20:12:35.438Z,7.40
2024-03-29T20:15:59.105Z,8.10
2024-03-29T20:19:27.600Z,13.80
2024-03-29T20:22:52.692Z,6.80
2024-03-29T20:26:16.259Z,7.30
2024-03-29T20:29:39.831Z,6.60
2024-03-29T20:33:04.617Z,9.90
2024-03-29T20:36:28.088Z,10.00
2024-03-29T20:39:51.594Z,12.20
2024-03-29T20:43:15.148Z,8.00
2024-03-29T20:46:38.643Z,15.10
2024-03-29T20:50:02.304Z,12.90
2024-03-29T20:53:25.938Z,10.30
2024-03-29T20:56:49.786Z,9.20
2024-03-29T21:00:13.778Z,9.40
2024-03-29T21:03:54.741Z,11.00
2024-03-29T21:07:18.393Z,15.60
2024-03-29T21:10:41.920Z,10.20
2024-03-29T21:14:05.492Z,11.50
2024-03-29T21:17:29.246Z,11.80
2024-03-29T21:20:53.095Z,11.50
2024-03-29T21:24:17.748Z,16.20
2024-03-29T21:27:45.269Z,14.20
2024-03-29T21:31:08.851Z,11.60
2024-03-29T21:34:32.330Z,11.00
2024-03-29T21:37:56.206Z,9.50
2024-03-29T21:41:19.990Z,13.60
2024-03-29T21:44:43.744Z,11.30
2024-03-29T21:48:07.516Z,11.10
2024-03-29T21:51:31.207Z,9.20
2024-03-29T21:54:54.874Z,10.70
2024-03-29T21:58:18.408Z,10.00
2024-03-29T22:01:42.258Z,9.30
2024-03-29T22:05:05.957Z,12.90
2024-03-29T22:08:29.491Z,12.20
2024-03-29T22:11:53.064Z,14.50
2024-03-29T22:15:36.542Z,16.00
2024-03-29T22:19:33.495Z,11.10
2024-03-29T22:23:31.469Z,15.80
2024-03-29T22:27:28.513Z,9.80
2024-03-29T22:31:26.467Z,15.10
2024-03-29T22:35:23.549Z,12.20
2024-03-29T22:39:20.457Z,11.10
2024-03-29T22:43:17.440Z,12.70
2024-03-29T22:47:15.457Z,11.00
2024-03-29T22:51:13.423Z,9.30
2024-03-29T22:55:10.499Z,10.90
2024-03-29T22:59:10.462Z,14.70
2024-03-29T23:03:07.408Z,11.40
2024-03-29T23:07:12.426Z,11.00
2024-03-29T23:11:10.427Z,17.40
2024-03-29T23:15:07.474Z,10.40
2024-03-29T23:19:05.399Z,9.70
2024-03-29T23:23:05.388Z,10.90
2024-03-29T23:27:02.421Z,10.80
2024-03-29T23:31:00.418Z,11.40
2024-03-29T23:34:57.375Z,11.30
2024-03-29T23:38:54.393Z,13.50
2024-03-29T23:42:52.413Z,10.60
2024-03-29T23:46:49.397Z,14.20
2024-03-29T23:50:46.405Z,12.60
2024-03-29T23:54:43.377Z,12.70
2024-03-29T23:58:41.382Z,10.60
